CheckWX is a tool to help pilots better visualize weather data.  It is not intended as a substitute for an official pre-flight weather briefing.

19:25:13 UTC

KHEY METAR
Hanchey AHP (Fort Rucker) Heliport
Fort Rucker Ozark, Alabama, USA
Current

27 mins ago

KHEY 261858Z AUTO 00000KT 9SM BKN070 35/18 A3010 RMK AO2 SLP192 T03480180
Observed
May-26 @ 18:58 UTC
Visibility
9 SM
Flight Rules
VFR
Cloud Levels
  • Broken at 7,000' AGL
Temperature
35°C / 95°F
Dewpoint
18°C / 64°F
Humidity
36%
Altimeter
30.1" Hg
Pressure
1019.32 hPa
Previous

1 hour ago

KHEY 261758Z AUTO 00000KT 10SM SCT070 35/18 A3011 RMK AO2 SLP195 T03470182 10353 20228 57014
Observed
May-26 @ 17:58 UTC
Visibility
10 SM
Flight Rules
VFR
Cloud Levels
  • Scattered at 7,000' AGL
Temperature
35°C / 95°F
Dewpoint
18°C / 64°F
Humidity
36%
Altimeter
30.11" Hg
Pressure
1019.62 hPa
Previous

2 hours ago

KHEY 261746Z AUTO 00000KT 9SM BKN070 34/18 A3011 RMK AO2 SLP195
Observed
May-26 @ 17:46 UTC
Visibility
9 SM
Flight Rules
VFR
Cloud Levels
  • Broken at 7,000' AGL
Temperature
34°C / 93°F
Dewpoint
18°C / 64°F
Humidity
39%
Altimeter
30.11" Hg
Pressure
1019.62 hPa